sensor_id;sensor_type;location;lat;lon;timestamp;P1;durP1;ratioP1;P2;durP2;ratioP2
22843;SDS011;11588;51.178;4.852;2023-04-25T00:01:28;23.10;;;4.47;;
22843;SDS011;11588;51.178;4.852;2023-04-25T00:03:53;21.17;;;4.55;;
22843;SDS011;11588;51.178;4.852;2023-04-25T00:06:20;16.02;;;3.63;;
22843;SDS011;11588;51.178;4.852;2023-04-25T00:08:45;16.15;;;4.18;;
22843;SDS011;11588;51.178;4.852;2023-04-25T00:11:11;18.50;;;4.20;;
22843;SDS011;11588;51.178;4.852;2023-04-25T00:13:36;19.98;;;4.30;;
22843;SDS011;11588;51.178;4.852;2023-04-25T00:16:03;20.48;;;4.05;;
22843;SDS011;11588;51.178;4.852;2023-04-25T00:18:29;17.92;;;3.97;;
22843;SDS011;11588;51.178;4.852;2023-04-25T00:20:54;20.25;;;4.47;;
22843;SDS011;11588;51.178;4.852;2023-04-25T00:23:20;16.55;;;4.03;;
22843;SDS011;11588;51.178;4.852;2023-04-25T00:25:48;15.13;;;3.97;;
22843;SDS011;11588;51.178;4.852;2023-04-25T00:28:13;17.52;;;4.07;;
22843;SDS011;11588;51.178;4.852;2023-04-25T00:30:40;18.38;;;4.40;;
22843;SDS011;11588;51.178;4.852;2023-04-25T00:33:07;17.00;;;4.05;;
22843;SDS011;11588;51.178;4.852;2023-04-25T00:35:32;16.95;;;3.55;;
22843;SDS011;11588;51.178;4.852;2023-04-25T00:37:58;18.45;;;4.55;;
22843;SDS011;11588;51.178;4.852;2023-04-25T00:40:23;22.17;;;4.10;;
22843;SDS011;11588;51.178;4.852;2023-04-25T00:42:49;16.05;;;3.95;;
22843;SDS011;11588;51.178;4.852;2023-04-25T00:45:14;20.23;;;4.28;;
22843;SDS011;11588;51.178;4.852;2023-04-25T00:47:40;17.58;;;3.70;;
22843;SDS011;11588;51.178;4.852;2023-04-25T00:50:06;19.27;;;4.07;;
22843;SDS011;11588;51.178;4.852;2023-04-25T00:52:32;19.88;;;4.20;;
22843;SDS011;11588;51.178;4.852;2023-04-25T00:54:58;15.80;;;3.90;;
22843;SDS011;11588;51.178;4.852;2023-04-25T00:57:25;19.38;;;4.32;;
22843;SDS011;11588;51.178;4.852;2023-04-25T00:59:50;19.60;;;4.20;;
22843;SDS011;11588;51.178;4.852;2023-04-25T01:02:16;21.50;;;4.70;;
22843;SDS011;11588;51.178;4.852;2023-04-25T01:04:42;19.50;;;5.30;;
22843;SDS011;11588;51.178;4.852;2023-04-25T01:07:09;16.98;;;4.85;;
22843;SDS011;11588;51.178;4.852;2023-04-25T01:09:35;19.58;;;5.75;;
22843;SDS011;11588;51.178;4.852;2023-04-25T01:12:00;16.45;;;4.88;;
22843;SDS011;11588;51.178;4.852;2023-04-25T01:14:26;19.73;;;5.00;;
22843;SDS011;11588;51.178;4.852;2023-04-25T01:16:51;19.45;;;4.45;;
22843;SDS011;11588;51.178;4.852;2023-04-25T01:19:19;19.00;;;4.72;;
22843;SDS011;11588;51.178;4.852;2023-04-25T01:21:45;19.08;;;5.55;;
22843;SDS011;11588;51.178;4.852;2023-04-25T01:24:10;16.35;;;4.40;;
22843;SDS011;11588;51.178;4.852;2023-04-25T01:26:38;18.33;;;4.20;;
22843;SDS011;11588;51.178;4.852;2023-04-25T01:29:05;16.55;;;5.22;;
22843;SDS011;11588;51.178;4.852;2023-04-25T01:31:32;18.92;;;4.95;;
22843;SDS011;11588;51.178;4.852;2023-04-25T01:33:59;18.92;;;4.80;;
22843;SDS011;11588;51.178;4.852;2023-04-25T01:36:24;18.40;;;5.15;;
22843;SDS011;11588;51.178;4.852;2023-04-25T01:38:50;21.98;;;4.70;;
22843;SDS011;11588;51.178;4.852;2023-04-25T01:41:15;22.75;;;5.25;;
22843;SDS011;11588;51.178;4.852;2023-04-25T01:43:42;23.90;;;5.18;;
22843;SDS011;11588;51.178;4.852;2023-04-25T01:46:08;19.75;;;5.15;;
22843;SDS011;11588;51.178;4.852;2023-04-25T01:48:35;17.33;;;5.13;;
22843;SDS011;11588;51.178;4.852;2023-04-25T01:51:00;22.73;;;5.45;;
22843;SDS011;11588;51.178;4.852;2023-04-25T01:53:25;22.25;;;5.50;;
22843;SDS011;11588;51.178;4.852;2023-04-25T01:55:51;20.52;;;5.45;;
22843;SDS011;11588;51.178;4.852;2023-04-25T01:58:16;18.75;;;4.95;;
22843;SDS011;11588;51.178;4.852;2023-04-25T02:00:43;23.60;;;5.60;;
22843;SDS011;11588;51.178;4.852;2023-04-25T02:03:09;17.90;;;5.57;;
22843;SDS011;11588;51.178;4.852;2023-04-25T02:05:35;23.98;;;6.03;;
22843;SDS011;11588;51.178;4.852;2023-04-25T02:08:02;22.23;;;5.03;;
22843;SDS011;11588;51.178;4.852;2023-04-25T02:10:27;26.20;;;5.50;;
22843;SDS011;11588;51.178;4.852;2023-04-25T02:12:53;23.23;;;5.95;;
22843;SDS011;11588;51.178;4.852;2023-04-25T02:15:18;24.42;;;5.43;;
22843;SDS011;11588;51.178;4.852;2023-04-25T02:17:46;22.10;;;5.22;;
22843;SDS011;11588;51.178;4.852;2023-04-25T02:20:12;22.23;;;6.53;;
22843;SDS011;11588;51.178;4.852;2023-04-25T02:22:37;19.25;;;5.85;;
22843;SDS011;11588;51.178;4.852;2023-04-25T02:25:03;23.08;;;6.13;;
22843;SDS011;11588;51.178;4.852;2023-04-25T02:27:29;24.70;;;7.40;;
22843;SDS011;11588;51.178;4.852;2023-04-25T02:29:55;18.85;;;6.45;;
22843;SDS011;11588;51.178;4.852;2023-04-25T02:32:25;21.20;;;6.60;;
22843;SDS011;11588;51.178;4.852;2023-04-25T02:34:51;21.05;;;6.35;;
22843;SDS011;11588;51.178;4.852;2023-04-25T02:37:17;25.05;;;6.80;;
22843;SDS011;11588;51.178;4.852;2023-04-25T02:39:42;27.17;;;6.50;;
22843;SDS011;11588;51.178;4.852;2023-04-25T02:42:08;25.23;;;6.75;;
22843;SDS011;11588;51.178;4.852;2023-04-25T02:44:33;21.38;;;6.40;;
22843;SDS011;11588;51.178;4.852;2023-04-25T02:46:59;21.13;;;6.22;;
22843;SDS011;11588;51.178;4.852;2023-04-25T02:49:24;35.65;;;6.90;;
22843;SDS011;11588;51.178;4.852;2023-04-25T02:51:51;21.95;;;5.80;;
22843;SDS011;11588;51.178;4.852;2023-04-25T02:54:16;27.23;;;6.45;;
22843;SDS011;11588;51.178;4.852;2023-04-25T02:56:42;29.02;;;6.78;;
22843;SDS011;11588;51.178;4.852;2023-04-25T02:59:07;26.40;;;7.18;;
22843;SDS011;11588;51.178;4.852;2023-04-25T03:01:32;23.90;;;6.25;;
22843;SDS011;11588;51.178;4.852;2023-04-25T03:03:58;24.45;;;6.65;;
22843;SDS011;11588;51.178;4.852;2023-04-25T03:06:24;22.67;;;6.13;;
22843;SDS011;11588;51.178;4.852;2023-04-25T03:08:50;30.35;;;6.45;;
22843;SDS011;11588;51.178;4.852;2023-04-25T03:11:15;28.77;;;7.32;;
22843;SDS011;11588;51.178;4.852;2023-04-25T03:13:41;27.30;;;7.07;;
22843;SDS011;11588;51.178;4.852;2023-04-25T03:16:07;24.20;;;6.28;;
22843;SDS011;11588;51.178;4.852;2023-04-25T03:18:32;30.30;;;7.13;;
22843;SDS011;11588;51.178;4.852;2023-04-25T03:20:58;27.33;;;6.63;;
22843;SDS011;11588;51.178;4.852;2023-04-25T03:23:23;25.38;;;6.55;;
22843;SDS011;11588;51.178;4.852;2023-04-25T03:25:49;28.35;;;6.68;;
22843;SDS011;11588;51.178;4.852;2023-04-25T03:28:14;23.70;;;6.20;;
22843;SDS011;11588;51.178;4.852;2023-04-25T03:30:39;19.98;;;6.25;;
22843;SDS011;11588;51.178;4.852;2023-04-25T03:33:05;20.52;;;6.00;;
22843;SDS011;11588;51.178;4.852;2023-04-25T03:35:32;21.23;;;6.13;;
22843;SDS011;11588;51.178;4.852;2023-04-25T03:37:57;22.48;;;5.38;;
22843;SDS011;11588;51.178;4.852;2023-04-25T03:40:24;25.70;;;7.65;;
22843;SDS011;11588;51.178;4.852;2023-04-25T03:42:49;22.73;;;6.22;;
22843;SDS011;11588;51.178;4.852;2023-04-25T03:45:15;19.90;;;6.00;;
22843;SDS011;11588;51.178;4.852;2023-04-25T03:47:40;21.88;;;6.13;;
22843;SDS011;11588;51.178;4.852;2023-04-25T03:50:05;25.80;;;5.75;;
22843;SDS011;11588;51.178;4.852;2023-04-25T03:52:32;18.88;;;5.55;;
22843;SDS011;11588;51.178;4.852;2023-04-25T03:54:58;20.55;;;5.57;;
22843;SDS011;11588;51.178;4.852;2023-04-25T03:57:23;23.83;;;5.57;;
22843;SDS011;11588;51.178;4.852;2023-04-25T03:59:49;26.60;;;6.20;;
22843;SDS011;11588;51.178;4.852;2023-04-25T04:02:17;17.08;;;5.60;;
22843;SDS011;11588;51.178;4.852;2023-04-25T04:04:42;23.98;;;6.18;;
22843;SDS011;11588;51.178;4.852;2023-04-25T04:07:09;14.38;;;5.55;;
22843;SDS011;11588;51.178;4.852;2023-04-25T04:09:35;22.17;;;5.40;;
22843;SDS011;11588;51.178;4.852;2023-04-25T04:12:00;19.40;;;5.75;;
22843;SDS011;11588;51.178;4.852;2023-04-25T04:14:28;18.70;;;5.45;;
22843;SDS011;11588;51.178;4.852;2023-04-25T04:16:53;22.05;;;5.03;;
22843;SDS011;11588;51.178;4.852;2023-04-25T04:19:18;16.05;;;4.93;;
22843;SDS011;11588;51.178;4.852;2023-04-25T04:21:44;13.20;;;4.50;;
22843;SDS011;11588;51.178;4.852;2023-04-25T04:24:09;15.73;;;4.78;;
22843;SDS011;11588;51.178;4.852;2023-04-25T04:26:35;17.92;;;4.53;;
22843;SDS011;11588;51.178;4.852;2023-04-25T04:29:04;12.23;;;4.22;;
22843;SDS011;11588;51.178;4.852;2023-04-25T04:31:30;14.20;;;4.28;;
22843;SDS011;11588;51.178;4.852;2023-04-25T04:33:55;15.60;;;3.92;;
22843;SDS011;11588;51.178;4.852;2023-04-25T04:36:22;12.23;;;4.30;;
22843;SDS011;11588;51.178;4.852;2023-04-25T04:38:48;14.35;;;3.85;;
22843;SDS011;11588;51.178;4.852;2023-04-25T04:41:13;16.70;;;4.03;;
22843;SDS011;11588;51.178;4.852;2023-04-25T04:43:39;13.55;;;3.90;;
22843;SDS011;11588;51.178;4.852;2023-04-25T04:46:05;16.17;;;5.18;;
22843;SDS011;11588;51.178;4.852;2023-04-25T04:48:31;12.65;;;4.28;;
22843;SDS011;11588;51.178;4.852;2023-04-25T04:50:59;15.07;;;4.57;;
22843;SDS011;11588;51.178;4.852;2023-04-25T04:53:27;16.52;;;4.20;;
22843;SDS011;11588;51.178;4.852;2023-04-25T04:55:52;18.70;;;4.90;;
22843;SDS011;11588;51.178;4.852;2023-04-25T04:58:18;19.35;;;4.50;;
22843;SDS011;11588;51.178;4.852;2023-04-25T05:00:44;11.93;;;4.13;;
22843;SDS011;11588;51.178;4.852;2023-04-25T05:03:10;17.25;;;5.10;;
22843;SDS011;11588;51.178;4.852;2023-04-25T05:05:36;10.18;;;4.38;;
22843;SDS011;11588;51.178;4.852;2023-04-25T05:08:05;23.02;;;4.45;;
22843;SDS011;11588;51.178;4.852;2023-04-25T05:10:30;16.40;;;5.30;;
22843;SDS011;11588;51.178;4.852;2023-04-25T05:12:57;15.90;;;4.57;;
22843;SDS011;11588;51.178;4.852;2023-04-25T05:15:25;13.10;;;4.85;;
22843;SDS011;11588;51.178;4.852;2023-04-25T05:17:50;15.15;;;4.47;;
22843;SDS011;11588;51.178;4.852;2023-04-25T05:20:16;15.13;;;4.68;;
22843;SDS011;11588;51.178;4.852;2023-04-25T05:22:43;18.38;;;4.88;;
22843;SDS011;11588;51.178;4.852;2023-04-25T05:25:09;25.52;;;6.28;;
22843;SDS011;11588;51.178;4.852;2023-04-25T05:27:34;20.27;;;4.40;;
22843;SDS011;11588;51.178;4.852;2023-04-25T05:30:00;20.05;;;5.88;;
22843;SDS011;11588;51.178;4.852;2023-04-25T05:32:25;23.02;;;5.93;;
22843;SDS011;11588;51.178;4.852;2023-04-25T05:34:51;17.48;;;5.05;;
22843;SDS011;11588;51.178;4.852;2023-04-25T05:37:17;21.08;;;5.78;;
22843;SDS011;11588;51.178;4.852;2023-04-25T05:39:42;24.58;;;5.90;;
22843;SDS011;11588;51.178;4.852;2023-04-25T05:42:07;16.10;;;5.25;;
22843;SDS011;11588;51.178;4.852;2023-04-25T05:49:51;15.98;;;3.75;;
22843;SDS011;11588;51.178;4.852;2023-04-25T05:52:17;13.57;;;4.05;;
22843;SDS011;11588;51.178;4.852;2023-04-25T05:54:43;17.77;;;4.47;;
22843;SDS011;11588;51.178;4.852;2023-04-25T05:57:08;12.63;;;4.13;;
22843;SDS011;11588;51.178;4.852;2023-04-25T05:59:34;15.98;;;3.67;;
22843;SDS011;11588;51.178;4.852;2023-04-25T06:01:59;12.48;;;3.97;;
22843;SDS011;11588;51.178;4.852;2023-04-25T06:04:25;10.93;;;3.50;;
22843;SDS011;11588;51.178;4.852;2023-04-25T06:06:51;14.35;;;3.50;;
22843;SDS011;11588;51.178;4.852;2023-04-25T06:09:17;12.65;;;3.90;;
22843;SDS011;11588;51.178;4.852;2023-04-25T06:11:43;16.63;;;3.83;;
22843;SDS011;11588;51.178;4.852;2023-04-25T06:14:10;17.05;;;3.75;;
22843;SDS011;11588;51.178;4.852;2023-04-25T06:16:35;16.45;;;4.05;;
22843;SDS011;11588;51.178;4.852;2023-04-25T06:19:00;11.55;;;2.92;;
22843;SDS011;11588;51.178;4.852;2023-04-25T06:21:26;14.00;;;3.28;;
22843;SDS011;11588;51.178;4.852;2023-04-25T06:23:53;13.73;;;3.63;;
22843;SDS011;11588;51.178;4.852;2023-04-25T06:29:21;13.15;;;3.15;;
22843;SDS011;11588;51.178;4.852;2023-04-25T06:31:46;19.35;;;3.47;;
22843;SDS011;11588;51.178;4.852;2023-04-25T06:34:12;12.77;;;3.33;;
22843;SDS011;11588;51.178;4.852;2023-04-25T06:36:37;16.30;;;3.28;;
22843;SDS011;11588;51.178;4.852;2023-04-25T06:39:04;15.40;;;2.97;;
22843;SDS011;11588;51.178;4.852;2023-04-25T06:41:29;14.15;;;3.03;;
22843;SDS011;11588;51.178;4.852;2023-04-25T06:43:55;11.48;;;2.70;;
22843;SDS011;11588;51.178;4.852;2023-04-25T06:46:20;8.68;;;2.97;;
22843;SDS011;11588;51.178;4.852;2023-04-25T06:48:46;12.88;;;3.05;;
22843;SDS011;11588;51.178;4.852;2023-04-25T06:51:12;13.35;;;2.70;;
22843;SDS011;11588;51.178;4.852;2023-04-25T06:53:38;14.15;;;2.80;;
22843;SDS011;11588;51.178;4.852;2023-04-25T06:56:07;7.05;;;2.75;;
22843;SDS011;11588;51.178;4.852;2023-04-25T06:58:32;12.73;;;3.55;;
22843;SDS011;11588;51.178;4.852;2023-04-25T07:00:57;16.73;;;3.15;;
22843;SDS011;11588;51.178;4.852;2023-04-25T07:03:23;15.30;;;3.47;;
22843;SDS011;11588;51.178;4.852;2023-04-25T07:05:50;14.98;;;3.35;;
22843;SDS011;11588;51.178;4.852;2023-04-25T07:08:16;18.58;;;3.25;;
22843;SDS011;11588;51.178;4.852;2023-04-25T07:10:41;14.32;;;2.72;;
22843;SDS011;11588;51.178;4.852;2023-04-25T07:13:07;11.68;;;3.05;;
22843;SDS011;11588;51.178;4.852;2023-04-25T07:15:33;10.48;;;2.42;;
22843;SDS011;11588;51.178;4.852;2023-04-25T07:17:58;13.05;;;3.20;;
22843;SDS011;11588;51.178;4.852;2023-04-25T07:20:24;12.20;;;2.88;;
22843;SDS011;11588;51.178;4.852;2023-04-25T07:22:49;13.63;;;2.92;;
22843;SDS011;11588;51.178;4.852;2023-04-25T07:25:16;14.80;;;2.72;;
22843;SDS011;11588;51.178;4.852;2023-04-25T07:27:42;12.25;;;2.97;;
22843;SDS011;11588;51.178;4.852;2023-04-25T07:30:07;12.32;;;2.90;;
22843;SDS011;11588;51.178;4.852;2023-04-25T07:32:33;11.65;;;2.80;;
22843;SDS011;11588;51.178;4.852;2023-04-25T07:34:58;11.00;;;2.97;;
22843;SDS011;11588;51.178;4.852;2023-04-25T07:37:23;16.92;;;3.05;;
22843;SDS011;11588;51.178;4.852;2023-04-25T07:39:50;13.88;;;2.88;;
22843;SDS011;11588;51.178;4.852;2023-04-25T07:42:16;11.88;;;2.83;;
22843;SDS011;11588;51.178;4.852;2023-04-25T07:44:42;16.15;;;3.80;;
22843;SDS011;11588;51.178;4.852;2023-04-25T07:47:09;12.65;;;2.72;;
22843;SDS011;11588;51.178;4.852;2023-04-25T07:49:35;16.42;;;2.88;;
22843;SDS011;11588;51.178;4.852;2023-04-25T07:52:01;15.32;;;2.25;;
22843;SDS011;11588;51.178;4.852;2023-04-25T07:54:27;16.90;;;2.75;;
22843;SDS011;11588;51.178;4.852;2023-04-25T07:56:52;13.65;;;2.75;;
22843;SDS011;11588;51.178;4.852;2023-04-25T07:59:18;13.70;;;2.90;;
22843;SDS011;11588;51.178;4.852;2023-04-25T08:01:43;12.77;;;2.17;;
22843;SDS011;11588;51.178;4.852;2023-04-25T08:04:08;13.25;;;2.67;;
22843;SDS011;11588;51.178;4.852;2023-04-25T08:06:34;7.18;;;2.25;;
22843;SDS011;11588;51.178;4.852;2023-04-25T08:09:00;8.95;;;1.65;;
22843;SDS011;11588;51.178;4.852;2023-04-25T08:11:25;5.93;;;1.30;;
22843;SDS011;11588;51.178;4.852;2023-04-25T08:13:53;7.25;;;1.63;;
22843;SDS011;11588;51.178;4.852;2023-04-25T08:16:19;7.20;;;1.48;;
22843;SDS011;11588;51.178;4.852;2023-04-25T08:18:45;10.80;;;1.85;;
22843;SDS011;11588;51.178;4.852;2023-04-25T08:21:11;5.20;;;1.50;;
22843;SDS011;11588;51.178;4.852;2023-04-25T08:23:37;8.20;;;1.60;;
22843;SDS011;11588;51.178;4.852;2023-04-25T08:26:03;8.05;;;2.17;;
22843;SDS011;11588;51.178;4.852;2023-04-25T08:28:29;9.07;;;1.67;;
22843;SDS011;11588;51.178;4.852;2023-04-25T08:30:55;8.75;;;1.50;;
22843;SDS011;11588;51.178;4.852;2023-04-25T08:33:20;8.90;;;1.80;;
22843;SDS011;11588;51.178;4.852;2023-04-25T08:35:47;9.55;;;1.60;;
22843;SDS011;11588;51.178;4.852;2023-04-25T08:38:14;9.13;;;1.90;;
22843;SDS011;11588;51.178;4.852;2023-04-25T08:40:40;6.05;;;1.40;;
22843;SDS011;11588;51.178;4.852;2023-04-25T08:43:06;12.20;;;2.30;;
22843;SDS011;11588;51.178;4.852;2023-04-25T08:45:39;13.02;;;2.33;;
22843;SDS011;11588;51.178;4.852;2023-04-25T08:48:10;7.53;;;2.10;;
22843;SDS011;11588;51.178;4.852;2023-04-25T08:50:36;5.47;;;1.70;;
22843;SDS011;11588;51.178;4.852;2023-04-25T08:53:03;8.70;;;2.08;;
22843;SDS011;11588;51.178;4.852;2023-04-25T08:55:29;5.55;;;2.08;;
22843;SDS011;11588;51.178;4.852;2023-04-25T08:57:55;8.88;;;2.30;;
22843;SDS011;11588;51.178;4.852;2023-04-25T09:00:21;9.02;;;2.13;;
22843;SDS011;11588;51.178;4.852;2023-04-25T09:02:48;8.15;;;1.67;;
22843;SDS011;11588;51.178;4.852;2023-04-25T09:05:14;5.40;;;1.77;;
22843;SDS011;11588;51.178;4.852;2023-04-25T09:07:40;11.68;;;1.63;;
22843;SDS011;11588;51.178;4.852;2023-04-25T09:10:05;9.10;;;2.30;;
22843;SDS011;11588;51.178;4.852;2023-04-25T09:12:31;12.23;;;2.05;;
22843;SDS011;11588;51.178;4.852;2023-04-25T09:17:32;9.10;;;1.70;;
22843;SDS011;11588;51.178;4.852;2023-04-25T09:23:05;6.75;;;1.33;;
22843;SDS011;11588;51.178;4.852;2023-04-25T09:25:58;7.28;;;1.38;;
22843;SDS011;11588;51.178;4.852;2023-04-25T09:28:24;6.38;;;1.42;;
22843;SDS011;11588;51.178;4.852;2023-04-25T09:30:54;5.53;;;1.30;;
22843;SDS011;11588;51.178;4.852;2023-04-25T09:33:20;5.72;;;1.27;;
22843;SDS011;11588;51.178;4.852;2023-04-25T09:35:48;3.30;;;1.08;;
22843;SDS011;11588;51.178;4.852;2023-04-25T09:38:20;6.38;;;1.05;;
22843;SDS011;11588;51.178;4.852;2023-04-25T09:40:48;8.10;;;1.48;;
22843;SDS011;11588;51.178;4.852;2023-04-25T09:43:21;11.63;;;1.67;;
22843;SDS011;11588;51.178;4.852;2023-04-25T09:45:47;3.90;;;1.40;;
22843;SDS011;11588;51.178;4.852;2023-04-25T09:48:16;5.28;;;1.08;;
22843;SDS011;11588;51.178;4.852;2023-04-25T09:50:42;6.78;;;1.63;;
22843;SDS011;11588;51.178;4.852;2023-04-25T09:53:07;7.53;;;1.17;;
22843;SDS011;11588;51.178;4.852;2023-04-25T09:55:33;7.95;;;1.45;;
22843;SDS011;11588;51.178;4.852;2023-04-25T09:58:03;5.35;;;1.08;;
22843;SDS011;11588;51.178;4.852;2023-04-25T10:00:29;7.97;;;1.85;;
22843;SDS011;11588;51.178;4.852;2023-04-25T10:03:01;5.45;;;1.42;;
22843;SDS011;11588;51.178;4.852;2023-04-25T10:05:27;7.90;;;1.40;;
22843;SDS011;11588;51.178;4.852;2023-04-25T10:07:56;7.57;;;1.25;;
22843;SDS011;11588;51.178;4.852;2023-04-25T10:10:21;4.68;;;1.20;;
22843;SDS011;11588;51.178;4.852;2023-04-25T10:12:51;6.75;;;1.38;;
22843;SDS011;11588;51.178;4.852;2023-04-25T10:15:21;6.35;;;1.38;;
22843;SDS011;11588;51.178;4.852;2023-04-25T10:17:46;6.38;;;1.25;;
22843;SDS011;11588;51.178;4.852;2023-04-25T10:20:12;9.00;;;1.38;;
22843;SDS011;11588;51.178;4.852;2023-04-25T10:22:41;5.40;;;1.50;;
22843;SDS011;11588;51.178;4.852;2023-04-25T10:25:08;7.63;;;1.30;;
22843;SDS011;11588;51.178;4.852;2023-04-25T10:27:34;6.68;;;1.30;;
22843;SDS011;11588;51.178;4.852;2023-04-25T10:30:01;9.45;;;1.35;;
22843;SDS011;11588;51.178;4.852;2023-04-25T10:32:30;8.75;;;1.63;;
22843;SDS011;11588;51.178;4.852;2023-04-25T10:34:56;7.78;;;1.38;;
22843;SDS011;11588;51.178;4.852;2023-04-25T10:37:22;4.03;;;1.08;;
22843;SDS011;11588;51.178;4.852;2023-04-25T10:39:55;6.60;;;1.33;;
22843;SDS011;11588;51.178;4.852;2023-04-25T10:42:32;5.65;;;1.65;;
22843;SDS011;11588;51.178;4.852;2023-04-25T10:45:01;9.65;;;1.67;;
22843;SDS011;11588;51.178;4.852;2023-04-25T10:49:54;7.22;;;1.90;;
22843;SDS011;11588;51.178;4.852;2023-04-25T10:52:24;4.85;;;1.70;;
22843;SDS011;11588;51.178;4.852;2023-04-25T10:54:52;2.63;;;1.23;;
22843;SDS011;11588;51.178;4.852;2023-04-25T10:59:51;3.38;;;1.15;;
22843;SDS011;11588;51.178;4.852;2023-04-25T11:02:16;4.97;;;1.13;;
22843;SDS011;11588;51.178;4.852;2023-04-25T11:04:42;6.00;;;1.30;;
22843;SDS011;11588;51.178;4.852;2023-04-25T11:09:42;2.92;;;1.13;;
22843;SDS011;11588;51.178;4.852;2023-04-25T11:12:07;3.40;;;1.20;;
22843;SDS011;11588;51.178;4.852;2023-04-25T11:14:33;3.00;;;1.10;;
22843;SDS011;11588;51.178;4.852;2023-04-25T11:17:00;6.95;;;1.20;;
22843;SDS011;11588;51.178;4.852;2023-04-25T11:19:28;5.32;;;1.20;;
22843;SDS011;11588;51.178;4.852;2023-04-25T11:21:55;3.83;;;0.90;;
22843;SDS011;11588;51.178;4.852;2023-04-25T11:24:25;2.90;;;0.70;;
22843;SDS011;11588;51.178;4.852;2023-04-25T11:26:50;6.32;;;1.20;;
22843;SDS011;11588;51.178;4.852;2023-04-25T11:29:18;4.90;;;1.00;;
22843;SDS011;11588;51.178;4.852;2023-04-25T11:31:46;3.50;;;0.80;;
22843;SDS011;11588;51.178;4.852;2023-04-25T11:34:16;4.82;;;0.90;;
22843;SDS011;11588;51.178;4.852;2023-04-25T11:36:42;4.43;;;0.90;;
22843;SDS011;11588;51.178;4.852;2023-04-25T11:39:07;3.65;;;0.95;;
22843;SDS011;11588;51.178;4.852;2023-04-25T11:41:32;3.78;;;0.90;;
22843;SDS011;11588;51.178;4.852;2023-04-25T11:47:00;5.53;;;1.10;;
22843;SDS011;11588;51.178;4.852;2023-04-25T11:49:30;4.65;;;1.30;;
22843;SDS011;11588;51.178;4.852;2023-04-25T11:51:55;8.65;;;1.58;;
22843;SDS011;11588;51.178;4.852;2023-04-25T11:54:21;5.78;;;1.10;;
22843;SDS011;11588;51.178;4.852;2023-04-25T11:56:47;5.30;;;0.93;;
22843;SDS011;11588;51.178;4.852;2023-04-25T11:59:14;5.60;;;1.00;;
22843;SDS011;11588;51.178;4.852;2023-04-25T12:01:47;5.13;;;0.93;;
22843;SDS011;11588;51.178;4.852;2023-04-25T12:04:15;7.05;;;1.33;;
22843;SDS011;11588;51.178;4.852;2023-04-25T12:06:41;4.00;;;0.95;;
22843;SDS011;11588;51.178;4.852;2023-04-25T12:09:10;5.65;;;1.17;;
22843;SDS011;11588;51.178;4.852;2023-04-25T12:14:09;3.42;;;0.90;;
22843;SDS011;11588;51.178;4.852;2023-04-25T12:19:08;4.00;;;1.00;;
22843;SDS011;11588;51.178;4.852;2023-04-25T12:21:33;6.15;;;1.25;;
22843;SDS011;11588;51.178;4.852;2023-04-25T12:26:45;3.60;;;0.90;;
22843;SDS011;11588;51.178;4.852;2023-04-25T12:31:43;2.72;;;0.85;;
22843;SDS011;11588;51.178;4.852;2023-04-25T12:34:10;8.40;;;1.52;;
22843;SDS011;11588;51.178;4.852;2023-04-25T12:36:36;4.80;;;1.00;;
22843;SDS011;11588;51.178;4.852;2023-04-25T12:39:05;2.88;;;0.90;;
22843;SDS011;11588;51.178;4.852;2023-04-25T12:41:31;6.38;;;1.02;;
22843;SDS011;11588;51.178;4.852;2023-04-25T12:44:02;3.33;;;0.80;;
22843;SDS011;11588;51.178;4.852;2023-04-25T12:46:31;6.88;;;1.15;;
22843;SDS011;11588;51.178;4.852;2023-04-25T12:48:56;5.25;;;1.40;;
22843;SDS011;11588;51.178;4.852;2023-04-25T12:51:23;7.15;;;1.42;;
22843;SDS011;11588;51.178;4.852;2023-04-25T12:53:50;9.13;;;1.50;;
22843;SDS011;11588;51.178;4.852;2023-04-25T12:56:15;9.15;;;1.20;;
22843;SDS011;11588;51.178;4.852;2023-04-25T12:58:41;5.70;;;1.27;;
22843;SDS011;11588;51.178;4.852;2023-04-25T13:04:10;6.47;;;1.10;;
22843;SDS011;11588;51.178;4.852;2023-04-25T13:06:35;7.13;;;1.30;;
22843;SDS011;11588;51.178;4.852;2023-04-25T13:09:01;4.72;;;1.42;;
22843;SDS011;11588;51.178;4.852;2023-04-25T13:11:28;4.30;;;1.10;;
22843;SDS011;11588;51.178;4.852;2023-04-25T13:13:53;6.35;;;1.35;;
22843;SDS011;11588;51.178;4.852;2023-04-25T13:16:18;7.18;;;1.20;;
22843;SDS011;11588;51.178;4.852;2023-04-25T13:18:45;5.00;;;1.10;;
22843;SDS011;11588;51.178;4.852;2023-04-25T13:21:12;6.20;;;1.23;;
22843;SDS011;11588;51.178;4.852;2023-04-25T13:23:37;3.40;;;0.80;;
22843;SDS011;11588;51.178;4.852;2023-04-25T13:26:04;4.60;;;1.10;;
22843;SDS011;11588;51.178;4.852;2023-04-25T13:28:30;7.53;;;1.50;;
22843;SDS011;11588;51.178;4.852;2023-04-25T13:30:56;6.72;;;1.73;;
22843;SDS011;11588;51.178;4.852;2023-04-25T13:33:21;5.05;;;1.08;;
22843;SDS011;11588;51.178;4.852;2023-04-25T13:35:47;10.98;;;1.48;;
22843;SDS011;11588;51.178;4.852;2023-04-25T13:38:21;8.45;;;1.58;;
22843;SDS011;11588;51.178;4.852;2023-04-25T13:40:47;9.23;;;1.65;;
22843;SDS011;11588;51.178;4.852;2023-04-25T13:43:12;4.18;;;1.20;;
22843;SDS011;11588;51.178;4.852;2023-04-25T13:45:41;6.70;;;1.00;;
22843;SDS011;11588;51.178;4.852;2023-04-25T13:48:11;5.97;;;1.33;;
22843;SDS011;11588;51.178;4.852;2023-04-25T13:50:36;5.78;;;1.30;;
22843;SDS011;11588;51.178;4.852;2023-04-25T13:53:02;6.45;;;1.08;;
22843;SDS011;11588;51.178;4.852;2023-04-25T13:55:27;4.50;;;1.00;;
22843;SDS011;11588;51.178;4.852;2023-04-25T13:57:52;6.78;;;1.40;;
22843;SDS011;11588;51.178;4.852;2023-04-25T14:00:18;4.95;;;1.27;;
22843;SDS011;11588;51.178;4.852;2023-04-25T14:02:43;7.18;;;1.40;;
22843;SDS011;11588;51.178;4.852;2023-04-25T14:05:09;8.05;;;1.10;;
22843;SDS011;11588;51.178;4.852;2023-04-25T14:07:34;6.43;;;1.20;;
22843;SDS011;11588;51.178;4.852;2023-04-25T14:10:00;5.75;;;1.38;;
22843;SDS011;11588;51.178;4.852;2023-04-25T14:12:27;7.82;;;1.33;;
22843;SDS011;11588;51.178;4.852;2023-04-25T14:14:52;4.90;;;1.23;;
22843;SDS011;11588;51.178;4.852;2023-04-25T14:17:18;5.20;;;1.30;;
22843;SDS011;11588;51.178;4.852;2023-04-25T14:19:43;5.13;;;1.30;;
22843;SDS011;11588;51.178;4.852;2023-04-25T14:22:11;4.13;;;1.13;;
22843;SDS011;11588;51.178;4.852;2023-04-25T14:24:37;8.35;;;1.30;;
22843;SDS011;11588;51.178;4.852;2023-04-25T14:27:04;8.68;;;1.30;;
22843;SDS011;11588;51.178;4.852;2023-04-25T14:29:30;6.28;;;1.48;;
22843;SDS011;11588;51.178;4.852;2023-04-25T14:31:57;5.63;;;1.13;;
22843;SDS011;11588;51.178;4.852;2023-04-25T14:34:24;5.38;;;0.82;;
22843;SDS011;11588;51.178;4.852;2023-04-25T14:36:50;5.70;;;1.38;;
22843;SDS011;11588;51.178;4.852;2023-04-25T14:39:18;6.97;;;1.40;;
22843;SDS011;11588;51.178;4.852;2023-04-25T14:41:43;7.65;;;1.30;;
22843;SDS011;11588;51.178;4.852;2023-04-25T14:44:09;6.15;;;1.08;;
22843;SDS011;11588;51.178;4.852;2023-04-25T14:46:34;5.82;;;1.25;;
22843;SDS011;11588;51.178;4.852;2023-04-25T14:49:01;4.95;;;1.23;;
22843;SDS011;11588;51.178;4.852;2023-04-25T14:51:27;6.40;;;1.40;;
22843;SDS011;11588;51.178;4.852;2023-04-25T14:53:52;6.00;;;1.50;;
22843;SDS011;11588;51.178;4.852;2023-04-25T14:56:19;7.60;;;1.30;;
22843;SDS011;11588;51.178;4.852;2023-04-25T14:58:44;4.85;;;1.20;;
22843;SDS011;11588;51.178;4.852;2023-04-25T15:01:12;6.85;;;1.20;;
22843;SDS011;11588;51.178;4.852;2023-04-25T15:03:38;5.53;;;1.45;;
22843;SDS011;11588;51.178;4.852;2023-04-25T15:06:04;6.45;;;1.45;;
22843;SDS011;11588;51.178;4.852;2023-04-25T15:08:31;7.82;;;1.70;;
22843;SDS011;11588;51.178;4.852;2023-04-25T15:10:57;7.57;;;1.50;;
22843;SDS011;11588;51.178;4.852;2023-04-25T15:13:22;6.32;;;1.20;;